createdAt,value
2022-08-28T00:00:18.251Z,100193.53
2022-08-28T00:00:55.558Z,100189.34
2022-08-28T00:01:32.985Z,100190.84
2022-08-28T00:02:12.956Z,100187.03
2022-08-28T00:02:50.208Z,100184.47
2022-08-28T00:03:26.840Z,100188.69
2022-08-28T00:04:04.035Z,100190.53
2022-08-28T00:04:41.727Z,100190.38
2022-08-28T00:05:19.591Z,100189.69
2022-08-28T00:05:56.727Z,100190.44
2022-08-28T00:06:33.417Z,100184.41
2022-08-28T00:07:13.693Z,100197.53
2022-08-28T00:07:52.623Z,100185.91
2022-08-28T00:08:29.441Z,100191.78
2022-08-28T00:09:07.561Z,100193.47
2022-08-28T00:09:44.865Z,100190.53
2022-08-28T00:10:22.684Z,100193.13
2022-08-28T00:10:59.817Z,100191.56
2022-08-28T00:11:37.877Z,100193.22
2022-08-28T00:12:15.543Z,100197.03
2022-08-28T00:12:53.923Z,100192.69
2022-08-28T00:13:32.107Z,100188.50
2022-08-28T00:14:11.823Z,100193.66
2022-08-28T00:14:49.878Z,100190.28
2022-08-28T00:15:28.733Z,100186.41
2022-08-28T00:16:05.856Z,100190.44
2022-08-28T00:16:43.942Z,100189.06
2022-08-28T00:17:22.160Z,100194.56
2022-08-28T00:17:59.648Z,100194.72
2022-08-28T00:18:37.712Z,100188.06
2022-08-28T00:19:18.199Z,100192.22
2022-08-28T00:19:56.736Z,100200.41
2022-08-28T00:20:37.548Z,100196.75
2022-08-28T00:21:18.511Z,100191.94
2022-08-28T00:21:59.599Z,100191.25
2022-08-28T00:22:40.903Z,100187.88
2022-08-28T00:23:21.272Z,100196.59
2022-08-28T00:24:02.338Z,100191.50
2022-08-28T00:24:39.812Z,100195.41
2022-08-28T00:25:17.902Z,100197.69
2022-08-28T00:25:56.047Z,100194.50
2022-08-28T00:26:33.500Z,100191.81
2022-08-28T00:27:11.660Z,100194.59
2022-08-28T00:27:49.034Z,100195.25
2022-08-28T00:28:26.993Z,100196.13
2022-08-28T00:29:04.268Z,100195.00
2022-08-28T00:29:42.649Z,100194.41
2022-08-28T00:30:20.269Z,100196.06
2022-08-28T00:30:57.991Z,100191.00
2022-08-28T00:31:34.880Z,100193.56
2022-08-28T00:32:13.097Z,100188.34
2022-08-28T00:32:52.720Z,100200.72
2022-08-28T00:33:33.198Z,100197.88
2022-08-28T00:34:13.604Z,100200.13
2022-08-28T00:34:55.069Z,100192.09
2022-08-28T00:35:32.938Z,100191.41
2022-08-28T00:36:10.707Z,100196.47
2022-08-28T00:36:48.158Z,100193.19
2022-08-28T00:37:26.134Z,100189.75
2022-08-28T00:38:03.351Z,100192.28
2022-08-28T00:38:41.397Z,100190.28
2022-08-28T00:39:19.828Z,100192.13
2022-08-28T00:40:00.302Z,100183.78
2022-08-28T00:40:43.157Z,100184.09
2022-08-28T00:41:27.527Z,100188.63
2022-08-28T00:42:07.909Z,100192.66
2022-08-28T00:42:49.340Z,100182.81
2022-08-28T00:43:45.491Z,100187.69
2022-08-28T00:44:25.503Z,100185.03
2022-08-28T00:45:03.974Z,100191.88
2022-08-28T00:45:42.615Z,100190.91
2022-08-28T00:46:23.028Z,100193.44
2022-08-28T00:47:00.099Z,100192.72
2022-08-28T00:47:37.069Z,100193.44
2022-08-28T00:48:14.507Z,100193.44
2022-08-28T00:48:51.974Z,100196.25
2022-08-28T00:49:29.589Z,100191.44
2022-08-28T00:50:07.312Z,100188.59
2022-08-28T00:50:46.333Z,100192.78
2022-08-28T00:51:24.255Z,100192.63
2022-08-28T00:52:02.542Z,100186.59
2022-08-28T00:52:40.975Z,100195.31
2022-08-28T00:53:18.804Z,100196.19
2022-08-28T00:53:58.812Z,100192.09
2022-08-28T00:54:36.335Z,100203.50
2022-08-28T00:55:13.945Z,100193.34
2022-08-28T00:55:52.790Z,100192.63
2022-08-28T00:56:30.093Z,100199.06
2022-08-28T00:57:07.047Z,100195.88
2022-08-28T00:57:44.646Z,100197.53
2022-08-28T00:58:22.059Z,100202.91
2022-08-28T00:58:59.710Z,100198.16
2022-08-28T00:59:37.429Z,100199.84
2022-08-28T01:00:14.404Z,100199.00
2022-08-28T01:00:51.974Z,100195.81
2022-08-28T01:01:29.906Z,100192.63
2022-08-28T01:02:07.390Z,100198.06
2022-08-28T01:02:44.452Z,100198.78
2022-08-28T01:03:25.143Z,100204.22
2022-08-28T01:04:03.327Z,100206.81
2022-08-28T01:04:43.921Z,100201.53
2022-08-28T01:05:25.666Z,100198.53
2022-08-28T01:06:05.345Z,100204.00
2022-08-28T01:06:47.238Z,100198.34
2022-08-28T01:07:30.828Z,100202.16
2022-08-28T01:08:13.399Z,100203.31
2022-08-28T01:08:53.892Z,100196.13
2022-08-28T01:09:32.412Z,100201.44
2022-08-28T01:10:14.024Z,100203.13
2022-08-28T01:10:55.542Z,100204.88
2022-08-28T01:11:43.550Z,100201.63
2022-08-28T01:12:29.660Z,100198.22
2022-08-28T01:13:14.653Z,100208.63
2022-08-28T01:13:52.974Z,100199.81
2022-08-28T01:14:30.466Z,100199.06
2022-08-28T01:15:09.503Z,100208.22
2022-08-28T01:15:47.149Z,100204.75
2022-08-28T01:16:31.630Z,100199.56
2022-08-28T01:17:11.561Z,100201.63
2022-08-28T01:17:51.687Z,100201.34
2022-08-28T01:18:29.307Z,100200.06
2022-08-28T01:19:06.819Z,100205.47
2022-08-28T01:19:44.279Z,100204.25
2022-08-28T01:20:22.091Z,100209.75
2022-08-28T01:21:08.553Z,100204.97
2022-08-28T01:22:04.062Z,100200.22
2022-08-28T01:22:41.267Z,100210.91
2022-08-28T01:23:36.104Z,100204.09
2022-08-28T01:24:14.668Z,100208.44
2022-08-28T01:24:52.143Z,100209.00
2022-08-28T01:25:29.313Z,100206.38
2022-08-28T01:26:11.741Z,100204.72
2022-08-28T01:26:54.102Z,100210.56
2022-08-28T01:27:44.621Z,100204.63
2022-08-28T01:28:27.899Z,100209.31
2022-08-28T01:29:05.335Z,100203.28
2022-08-28T01:29:42.912Z,100204.97
2022-08-28T01:30:21.775Z,100205.69
2022-08-28T01:30:58.762Z,100210.22
2022-08-28T01:31:35.984Z,100208.63
2022-08-28T01:32:12.822Z,100208.38
2022-08-28T01:32:51.744Z,100208.38
2022-08-28T01:33:28.932Z,100212.03
2022-08-28T01:34:05.529Z,100211.34
2022-08-28T01:34:42.332Z,100211.50
2022-08-28T01:35:19.834Z,100214.72
2022-08-28T01:35:57.026Z,100213.19
2022-08-28T01:36:34.822Z,100209.94
2022-08-28T01:37:12.437Z,100218.56
2022-08-28T01:37:51.001Z,100213.22
2022-08-28T01:38:28.806Z,100216.28
2022-08-28T01:39:06.685Z,100215.75
2022-08-28T01:39:44.001Z,100212.63
2022-08-28T01:40:22.949Z,100211.81
2022-08-28T01:41:00.471Z,100213.66
2022-08-28T01:41:38.173Z,100223.31
2022-08-28T01:42:15.818Z,100212.53
2022-08-28T01:42:53.743Z,100219.00
2022-08-28T01:43:31.842Z,100219.41
2022-08-28T01:44:09.843Z,100216.03
2022-08-28T01:44:47.330Z,100215.03
2022-08-28T01:45:25.352Z,100221.22
2022-08-28T01:46:03.272Z,100213.03
2022-08-28T01:46:43.322Z,100215.97
2022-08-28T01:47:23.169Z,100219.47
2022-08-28T01:48:06.873Z,100213.13
2022-08-28T01:48:50.930Z,100216.59
2022-08-28T01:49:32.579Z,100214.81
2022-08-28T01:50:15.628Z,100221.66
2022-08-28T01:51:02.419Z,100219.06
2022-08-28T01:51:43.403Z,100219.31
2022-08-28T01:52:26.449Z,100224.50
2022-08-28T01:53:07.035Z,100212.25
2022-08-28T01:53:58.032Z,100218.22
2022-08-28T01:54:44.286Z,100218.59
2022-08-28T01:55:23.497Z,100219.44
2022-08-28T01:56:11.819Z,100219.44
2022-08-28T01:56:48.138Z,100214.06
2022-08-28T01:57:25.412Z,100220.28
2022-08-28T01:58:02.975Z,100223.19
2022-08-28T01:58:40.357Z,100220.00
2022-08-28T01:59:18.325Z,100224.84
2022-08-28T01:59:55.641Z,100219.66
2022-08-28T02:00:32.780Z,100225.56
2022-08-28T02:01:14.483Z,100224.56
2022-08-28T02:01:52.142Z,100219.19
2022-08-28T02:02:29.914Z,100228.69
2022-08-28T02:03:07.461Z,100225.94
2022-08-28T02:03:46.055Z,100225.25
2022-08-28T02:04:31.761Z,100227.22
2022-08-28T02:05:09.044Z,100225.56
2022-08-28T02:05:46.236Z,100232.13
2022-08-28T02:06:24.443Z,100219.19
2022-08-28T02:07:01.185Z,100229.31
2022-08-28T02:07:38.848Z,100232.13
2022-08-28T02:08:15.591Z,100226.94
2022-08-28T02:08:52.601Z,100219.75
2022-08-28T02:09:29.437Z,100230.63
2022-08-28T02:10:06.675Z,100224.94
2022-08-28T02:10:43.605Z,100224.41
2022-08-28T02:11:21.655Z,100221.88
2022-08-28T02:11:59.412Z,100226.63
2022-08-28T02:12:38.398Z,100227.59
2022-08-28T02:13:19.968Z,100224.63
2022-08-28T02:14:02.345Z,100229.97
2022-08-28T02:14:42.977Z,100226.78
2022-08-28T02:15:24.398Z,100219.41
2022-08-28T02:16:06.995Z,100224.09
2022-08-28T02:16:57.373Z,100227.31
2022-08-28T02:17:40.109Z,100225.94
2022-08-28T02:18:22.208Z,100224.25
2022-08-28T02:19:01.022Z,100227.47
2022-08-28T02:19:38.568Z,100225.78
2022-08-28T02:20:15.554Z,100224.25
2022-08-28T02:20:52.776Z,100224.72
2022-08-28T02:21:32.830Z,100228.41
2022-08-28T02:22:10.431Z,100228.16
2022-08-28T02:22:47.617Z,100234.34
2022-08-28T02:23:24.234Z,100229.84
2022-08-28T02:24:01.723Z,100224.78
2022-08-28T02:24:39.442Z,100227.31
2022-08-28T02:25:16.975Z,100233.38
2022-08-28T02:25:54.992Z,100230.84
2022-08-28T02:26:32.364Z,100230.00
2022-08-28T02:27:11.054Z,100236.88
2022-08-28T02:27:48.706Z,100225.50
2022-08-28T02:28:26.126Z,100230.69
2022-08-28T02:29:03.558Z,100225.50
2022-08-28T02:29:41.483Z,100231.97
2022-08-28T02:30:18.369Z,100231.84
2022-08-28T02:30:55.588Z,100228.31
2022-08-28T02:31:33.607Z,100231.84
2022-08-28T02:32:13.176Z,100229.31
2022-08-28T02:32:51.084Z,100231.97
2022-08-28T02:33:28.973Z,100235.50
2022-08-28T02:34:10.341Z,100233.69
2022-08-28T02:34:48.055Z,100233.81
2022-08-28T02:35:25.891Z,100234.81
2022-08-28T02:36:03.340Z,100241.88
2022-08-28T02:36:43.283Z,100239.03
2022-08-28T02:37:22.281Z,100237.19
2022-08-28T02:38:03.717Z,100232.81
2022-08-28T02:38:44.987Z,100235.50
2022-08-28T02:39:26.493Z,100233.69
2022-08-28T02:40:04.315Z,100243.22
2022-08-28T02:40:42.955Z,100240.53
2022-08-28T02:41:25.649Z,100234.22
2022-08-28T02:42:07.709Z,100237.03
2022-08-28T02:42:49.314Z,100235.19
2022-08-28T02:43:30.582Z,100240.84
2022-08-28T02:44:12.873Z,100240.84
2022-08-28T02:44:51.092Z,100247.06
2022-08-28T02:45:28.270Z,100240.84
2022-08-28T02:46:05.404Z,100244.25
2022-08-28T02:46:42.823Z,100240.84
2022-08-28T02:47:19.547Z,100245.38
2022-08-28T02:47:56.895Z,100240.84
2022-08-28T02:48:34.214Z,100240.84
2022-08-28T02:49:13.939Z,100247.59
2022-08-28T02:49:53.262Z,100245.91
2022-08-28T02:50:35.606Z,100246.63
2022-08-28T02:51:17.026Z,100243.94
2022-08-28T02:52:03.378Z,100245.91
2022-08-28T02:52:49.300Z,100250.28
2022-08-28T02:53:25.882Z,100254.94
2022-08-28T02:54:02.987Z,100256.91
2022-08-28T02:54:40.382Z,100249.91
2022-08-28T02:55:17.843Z,100252.88
2022-08-28T02:55:55.136Z,100254.69
2022-08-28T02:56:32.118Z,100256.69
2022-08-28T02:57:10.727Z,100253.56
2022-08-28T02:57:47.750Z,100254.38
2022-08-28T02:58:24.647Z,100252.56
2022-08-28T02:59:01.581Z,100255.25
2022-08-28T02:59:38.673Z,100260.59
2022-08-28T03:00:15.946Z,100255.41
2022-08-28T03:00:52.833Z,100249.19
2022-08-28T03:01:30.958Z,100258.59
2022-08-28T03:02:08.491Z,100256.91
2022-08-28T03:02:46.629Z,100260.59
2022-08-28T03:03:24.068Z,100253.56
2022-08-28T03:04:01.594Z,100258.91
2022-08-28T03:04:39.189Z,100262.56
2022-08-28T03:05:16.321Z,100261.44
2022-08-28T03:05:53.859Z,100261.59
2022-08-28T03:06:31.951Z,100263.28
2022-08-28T03:07:11.196Z,100264.13
2022-08-28T03:07:48.856Z,100255.25
2022-08-28T03:08:27.245Z,100256.38
2022-08-28T03:09:04.228Z,100259.91
2022-08-28T03:09:41.713Z,100259.22
2022-08-28T03:10:19.923Z,100259.91
2022-08-28T03:10:57.600Z,100266.25
2022-08-28T03:11:35.655Z,100267.38
2022-08-28T03:12:15.600Z,100264.56
2022-08-28T03:12:58.801Z,100255.03
2022-08-28T03:13:43.962Z,100257.38
2022-08-28T03:14:29.839Z,100266.56
2022-08-28T03:15:11.156Z,100262.19
2022-08-28T03:15:48.149Z,100266.56
2022-08-28T03:16:28.231Z,100264.19
2022-08-28T03:17:05.088Z,100259.50
2022-08-28T03:17:42.363Z,100261.50
2022-08-28T03:18:19.842Z,100268.56
2022-08-28T03:18:56.724Z,100253.47
2022-08-28T03:19:33.736Z,100256.00
2022-08-28T03:20:12.011Z,100255.84
2022-08-28T03:20:49.399Z,100255.03
2022-08-28T03:21:26.956Z,100254.00
2022-08-28T03:22:03.923Z,100252.19
2022-08-28T03:22:41.622Z,100254.00
2022-08-28T03:23:19.596Z,100253.16
2022-08-28T03:23:57.295Z,100255.03
2022-08-28T03:24:34.974Z,100253.16
2022-08-28T03:25:12.362Z,100248.78
2022-08-28T03:25:48.915Z,100255.16
2022-08-28T03:26:26.213Z,100258.53
2022-08-28T03:27:03.717Z,100253.16
2022-08-28T03:27:41.629Z,100254.31
2022-08-28T03:28:20.305Z,100255.31
2022-08-28T03:28:57.538Z,100249.81
2022-08-28T03:29:36.861Z,100261.50
2022-08-28T03:30:13.773Z,100261.50
2022-08-28T03:30:50.969Z,100254.44
2022-08-28T03:31:29.449Z,100251.94
2022-08-28T03:32:06.766Z,100251.09
2022-08-28T03:32:44.347Z,100249.41
2022-08-28T03:33:22.699Z,100246.72
2022-08-28T03:34:00.700Z,100255.47
2022-08-28T03:34:39.005Z,100252.78
2022-08-28T03:35:16.563Z,100246.41
2022-08-28T03:35:54.219Z,100247.44
2022-08-28T03:36:35.777Z,100251.09
2022-08-28T03:37:17.495Z,100256.59
2022-08-28T03:37:57.703Z,100249.41
2022-08-28T03:38:37.668Z,100253.91
2022-08-28T03:39:21.154Z,100258.44
2022-08-28T03:40:06.087Z,100258.16
2022-08-28T03:40:57.136Z,100265.16
2022-08-28T03:41:45.751Z,100260.53
2022-08-28T03:42:23.021Z,100250.25
2022-08-28T03:43:01.597Z,100255.47
2022-08-28T03:43:39.216Z,100257.13
2022-08-28T03:44:17.170Z,100257.28
2022-08-28T03:44:54.191Z,100258.16
2022-08-28T03:45:31.110Z,100260.81
2022-08-28T03:46:08.256Z,100259.81
2022-08-28T03:46:45.240Z,100259.97
2022-08-28T03:47:22.892Z,100253.78
2022-08-28T03:48:00.410Z,100264.63
2022-08-28T03:48:37.800Z,100253.09
2022-08-28T03:49:19.378Z,100261.28
2022-08-28T03:49:57.196Z,100263.78
2022-08-28T03:50:35.055Z,100254.75
2022-08-28T03:51:12.330Z,100260.28
2022-08-28T03:51:50.236Z,100252.25
2022-08-28T03:52:28.864Z,100262.78
2022-08-28T03:53:06.358Z,100260.28
2022-08-28T03:53:43.398Z,100255.09
2022-08-28T03:54:20.385Z,100255.91
2022-08-28T03:54:57.000Z,100257.75
2022-08-28T03:55:34.338Z,100264.78
2022-08-28T03:56:14.381Z,100256.19
2022-08-28T03:56:52.109Z,100259.56
2022-08-28T03:57:30.191Z,100260.44
2022-08-28T03:58:07.321Z,100258.75
2022-08-28T03:58:45.222Z,100258.75
2022-08-28T03:59:22.707Z,100262.09
2022-08-28T04:00:03.940Z,100259.41
2022-08-28T04:00:41.142Z,100256.75
2022-08-28T04:01:21.157Z,100257.59
2022-08-28T04:01:59.856Z,100262.25
2022-08-28T04:02:39.295Z,100269.31
2022-08-28T04:03:20.564Z,100264.09
2022-08-28T04:04:02.262Z,100265.03
2022-08-28T04:04:43.901Z,100265.91
2022-08-28T04:05:24.994Z,100267.72
2022-08-28T04:06:05.963Z,100268.59
2022-08-28T04:06:46.461Z,100270.53
2022-08-28T04:07:26.837Z,100267.03
2022-08-28T04:08:10.634Z,100265.34
2022-08-28T04:08:52.880Z,100272.38
2022-08-28T04:09:32.557Z,100264.22
2022-08-28T04:10:14.177Z,100270.53
2022-08-28T04:10:55.537Z,100265.50
2022-08-28T04:11:38.675Z,100266.34
2022-08-28T04:12:24.912Z,100268.00
2022-08-28T04:13:10.957Z,100265.81
2022-08-28T04:13:50.453Z,100266.34
2022-08-28T04:14:27.075Z,100273.38
2022-08-28T04:15:03.986Z,100267.03
2022-08-28T04:15:41.255Z,100265.50
2022-08-28T04:16:19.787Z,100271.56
2022-08-28T04:16:59.765Z,100268.88
2022-08-28T04:17:38.308Z,100275.06
2022-08-28T04:18:15.223Z,100272.38
2022-08-28T04:18:52.027Z,100266.06
2022-08-28T04:19:28.757Z,100277.59
2022-08-28T04:20:05.832Z,100275.91
2022-08-28T04:20:46.385Z,100274.09
2022-08-28T04:21:22.992Z,100284.06
2022-08-28T04:22:00.454Z,100274.22
2022-08-28T04:22:38.883Z,100278.72
2022-08-28T04:23:17.585Z,100282.25
2022-08-28T04:23:54.979Z,100275.22
2022-08-28T04:24:33.165Z,100276.19
2022-08-28T04:25:11.117Z,100273.38
2022-08-28T04:25:49.104Z,100278.72
2022-08-28T04:26:26.201Z,100284.06
2022-08-28T04:27:03.813Z,100283.41
2022-08-28T04:27:42.190Z,100277.06
2022-08-28T04:28:19.881Z,100282.41
2022-08-28T04:28:57.510Z,100275.22
2022-08-28T04:29:38.866Z,100277.75
2022-08-28T04:30:21.421Z,100272.25
2022-08-28T04:31:06.941Z,100276.03
2022-08-28T04:31:51.892Z,100271.41
2022-08-28T04:32:34.703Z,100276.03
2022-08-28T04:33:13.000Z,100274.38
2022-08-28T04:33:50.180Z,100277.88
2022-08-28T04:34:27.841Z,100269.03
2022-08-28T04:35:04.683Z,100278.88
2022-08-28T04:35:42.754Z,100275.50
2022-08-28T04:36:19.731Z,100274.69
2022-08-28T04:36:56.776Z,100271.72
2022-08-28T04:37:34.069Z,100277.19
2022-08-28T04:38:13.949Z,100282.41
2022-08-28T04:38:51.340Z,100275.22
2022-08-28T04:39:28.093Z,100281.72
2022-08-28T04:40:05.180Z,100277.06
2022-08-28T04:40:42.924Z,100284.06
2022-08-28T04:41:20.077Z,100288.88
2022-08-28T04:41:58.075Z,100281.72
2022-08-28T04:42:35.827Z,100282.41
2022-08-28T04:43:13.292Z,100281.53
2022-08-28T04:43:52.576Z,100278.88
2022-08-28T04:44:30.160Z,100287.09
2022-08-28T04:45:08.084Z,100285.22
2022-08-28T04:45:45.862Z,100282.72
2022-08-28T04:46:23.398Z,100288.88
2022-08-28T04:47:01.726Z,100277.34
2022-08-28T04:47:38.557Z,100281.00
2022-08-28T04:48:16.569Z,100283.53
2022-08-28T04:48:54.043Z,100269.47
2022-08-28T04:49:31.579Z,100273.69
2022-08-28T04:50:09.576Z,100276.53
2022-08-28T04:50:46.634Z,100270.31
2022-08-28T04:51:23.883Z,100276.53
2022-08-28T04:52:01.702Z,100268.50
2022-08-28T04:52:39.155Z,100272.00
2022-08-28T04:53:16.447Z,100275.66
2022-08-28T04:53:54.463Z,100280.19
2022-08-28T04:54:31.312Z,100277.50
2022-08-28T04:55:08.454Z,100273.84
2022-08-28T04:55:54.383Z,100278.19
2022-08-28T04:56:31.483Z,100273.69
2022-08-28T04:57:08.210Z,100275.66
2022-08-28T04:57:45.804Z,100277.66
2022-08-28T04:58:23.885Z,100282.03
2022-08-28T04:59:01.618Z,100280.03
2022-08-28T04:59:38.651Z,100281.88
2022-08-28T05:00:15.658Z,100276.66
2022-08-28T05:00:52.664Z,100287.38
2022-08-28T05:01:29.605Z,100288.22
2022-08-28T05:02:06.708Z,100285.69
2022-08-28T05:02:43.595Z,100283.97
2022-08-28T05:03:20.355Z,100285.69
2022-08-28T05:03:58.706Z,100283.84
2022-08-28T05:04:37.323Z,100278.63
2022-08-28T05:05:14.624Z,100279.63
2022-08-28T05:05:51.904Z,100285.53
2022-08-28T05:06:29.155Z,100287.53
2022-08-28T05:07:07.148Z,100283.00
2022-08-28T05:07:44.993Z,100286.66
2022-08-28T05:08:21.790Z,100277.66
2022-08-28T05:08:59.026Z,100281.31
2022-08-28T05:09:37.402Z,100283.16
2022-08-28T05:10:14.797Z,100288.34
2022-08-28T05:10:52.520Z,100292.88
2022-08-28T05:11:34.265Z,100291.03
2022-08-28T05:12:12.381Z,100293.72
2022-08-28T05:12:52.252Z,100292.00
2022-08-28T05:13:31.420Z,100292.00
2022-08-28T05:14:16.093Z,100293.56
2022-08-28T05:14:59.001Z,100288.34
2022-08-28T05:15:49.718Z,100297.38
2022-08-28T05:16:36.023Z,100296.69
2022-08-28T05:17:13.479Z,100290.34
2022-08-28T05:17:50.292Z,100298.22
2022-08-28T05:18:27.678Z,100292.00
2022-08-28T05:19:05.146Z,100285.97
2022-08-28T05:19:41.670Z,100288.66
2022-08-28T05:20:18.937Z,100294.00
2022-08-28T05:20:55.514Z,100294.69
2022-08-28T05:21:32.459Z,100300.03
2022-08-28T05:22:10.237Z,100295.69
2022-08-28T05:22:47.150Z,100304.72
2022-08-28T05:23:24.187Z,100300.91
2022-08-28T05:24:02.097Z,100294.84
2022-08-28T05:24:42.297Z,100301.88
2022-08-28T05:25:20.947Z,100297.38
2022-08-28T05:25:58.185Z,100305.53
2022-08-28T05:26:35.239Z,100302.19
2022-08-28T05:27:15.444Z,100300.34
2022-08-28T05:27:53.032Z,100302.31
2022-08-28T05:28:30.505Z,100305.88
2022-08-28T05:29:08.235Z,100305.00
2022-08-28T05:29:45.823Z,100300.66
2022-08-28T05:30:24.159Z,100303.00
2022-08-28T05:31:10.638Z,100303.00
2022-08-28T05:31:51.406Z,100302.19
2022-08-28T05:32:35.038Z,100306.69
2022-08-28T05:33:12.606Z,100303.00
2022-08-28T05:33:52.075Z,100304.84
2022-08-28T05:34:34.668Z,100306.69
2022-08-28T05:35:15.902Z,100304.16
2022-08-28T05:36:00.230Z,100308.38
2022-08-28T05:36:41.834Z,100311.03
2022-08-28T05:37:26.077Z,100312.88
2022-08-28T05:38:10.933Z,100311.03
2022-08-28T05:38:57.563Z,100311.22
2022-08-28T05:39:35.048Z,100313.91
2022-08-28T05:40:12.089Z,100313.03
2022-08-28T05:40:50.152Z,100312.06
2022-08-28T05:41:27.671Z,100316.72
2022-08-28T05:42:05.430Z,100312.34
2022-08-28T05:42:42.380Z,100314.03
2022-08-28T05:43:19.840Z,100308.69
2022-08-28T05:43:57.196Z,100314.88
2022-08-28T05:44:35.130Z,100310.34
2022-08-28T05:45:11.971Z,100312.19
2022-08-28T05:45:49.192Z,100312.34
2022-08-28T05:46:26.588Z,100313.72
2022-08-28T05:47:04.167Z,100312.06
2022-08-28T05:47:40.955Z,100312.06
2022-08-28T05:48:18.427Z,100311.91
2022-08-28T05:48:55.355Z,100307.38
2022-08-28T05:49:32.375Z,100309.38
2022-08-28T05:50:09.395Z,100308.38
2022-08-28T05:50:47.359Z,100311.03
2022-08-28T05:51:24.889Z,100319.25
2022-08-28T05:52:03.966Z,100316.56
2022-08-28T05:52:41.939Z,100315.72
2022-08-28T05:53:20.014Z,100321.91
2022-08-28T05:53:57.480Z,100315.72
2022-08-28T05:54:35.053Z,100312.88
2022-08-28T05:55:11.979Z,100321.06
2022-08-28T05:55:51.715Z,100329.09
2022-08-28T05:56:31.128Z,100321.34
2022-08-28T05:57:09.908Z,100320.22
2022-08-28T05:57:48.069Z,100332.78
2022-08-28T05:58:24.476Z,100323.88
2022-08-28T05:59:04.850Z,100334.44
2022-08-28T05:59:44.989Z,100327.41
2022-08-28T06:00:26.415Z,100330.94
2022-08-28T06:01:07.878Z,100329.94
2022-08-28T06:01:48.849Z,100329.94
2022-08-28T06:02:29.623Z,100328.09
2022-08-28T06:03:13.755Z,100330.78
2022-08-28T06:03:54.776Z,100333.47
2022-08-28T06:04:31.845Z,100336.13
2022-08-28T06:05:09.091Z,100333.47
2022-08-28T06:06:02.673Z,100331.63
2022-08-28T06:06:49.167Z,100330.63
2022-08-28T06:07:31.814Z,100336.81
2022-08-28T06:08:09.340Z,100336.00
2022-08-28T06:08:58.541Z,100336.00
2022-08-28T06:09:35.414Z,100336.81
2022-08-28T06:10:12.394Z,100336.00
2022-08-28T06:10:50.915Z,100332.31
2022-08-28T06:11:27.147Z,100334.16
2022-08-28T06:12:06.815Z,100345.84
2022-08-28T06:12:44.991Z,100339.50
2022-08-28T06:13:22.256Z,100336.81
2022-08-28T06:13:58.858Z,100344.03
2022-08-28T06:14:35.737Z,100344.72
2022-08-28T06:15:12.641Z,100338.53
2022-08-28T06:15:49.570Z,100335.84
2022-08-28T06:16:26.717Z,100347.53
2022-08-28T06:17:04.074Z,100336.69
2022-08-28T06:17:41.662Z,100346.69
2022-08-28T06:18:20.056Z,100344.72
2022-08-28T06:18:57.155Z,100344.84
2022-08-28T06:19:37.249Z,100342.88
2022-08-28T06:20:17.846Z,100342.19
2022-08-28T06:21:02.097Z,100346.69
2022-08-28T06:21:47.890Z,100347.53
2022-08-28T06:22:33.427Z,100342.19
2022-08-28T06:23:15.995Z,100344.84
2022-08-28T06:24:00.852Z,100345.69
2022-08-28T06:24:38.879Z,100345.84
2022-08-28T06:25:16.309Z,100347.53
2022-08-28T06:25:53.920Z,100345.00
2022-08-28T06:26:32.049Z,100344.03
2022-08-28T06:27:10.074Z,100350.22
2022-08-28T06:27:48.058Z,100342.19
2022-08-28T06:28:26.073Z,100342.19
2022-08-28T06:29:03.258Z,100349.53
2022-08-28T06:29:40.706Z,100342.47
2022-08-28T06:30:18.263Z,100348.69
2022-08-28T06:31:18.665Z,100347.81
2022-08-28T06:31:51.974Z,100353.19
2022-08-28T06:32:30.887Z,100349.38
2022-08-28T06:33:09.602Z,100350.66
2022-08-28T06:33:49.610Z,100352.06
2022-08-28T06:34:32.499Z,100351.19
2022-08-28T06:35:13.576Z,100356.53
2022-08-28T06:35:54.965Z,100349.53
2022-08-28T06:36:37.172Z,100349.38
2022-08-28T06:37:19.395Z,100353.03
2022-08-28T06:38:00.127Z,100354.03
2022-08-28T06:38:41.334Z,100356.53
2022-08-28T06:39:25.130Z,100356.84
2022-08-28T06:40:14.224Z,100353.31
2022-08-28T06:41:01.879Z,100358.81
2022-08-28T06:41:41.765Z,100349.81
2022-08-28T06:42:19.746Z,100355.44
2022-08-28T06:43:33.637Z,100358.81
2022-08-28T06:44:17.496Z,100353.47
2022-08-28T06:45:00.307Z,100354.19
2022-08-28T06:45:48.089Z,100358.66
2022-08-28T06:46:32.443Z,100361.19
2022-08-28T06:47:10.513Z,100357.69
2022-08-28T06:47:52.843Z,100351.50
2022-08-28T06:48:39.325Z,100355.00
2022-08-28T06:49:24.357Z,100360.22
2022-08-28T06:51:20.454Z,100357.41
2022-08-28T06:52:06.240Z,100356.53
2022-08-28T06:52:46.316Z,100357.84
2022-08-28T06:53:35.061Z,100353.19
2022-08-28T06:54:21.748Z,100354.88
2022-08-28T06:55:18.075Z,100356.84
2022-08-28T06:56:13.670Z,100359.38
2022-08-28T06:57:13.195Z,100353.47
2022-08-28T07:00:19.937Z,100352.78
2022-08-28T07:04:23.945Z,100355.75
2022-08-28T07:05:19.458Z,100358.56
2022-08-28T07:06:11.205Z,100361.09
2022-08-28T07:07:03.598Z,100352.09
2022-08-28T07:07:47.216Z,100368.97
2022-08-28T07:08:33.501Z,100359.97
2022-08-28T07:10:19.563Z,100363.78
2022-08-28T07:10:58.396Z,100363.09
2022-08-28T07:11:41.760Z,100368.44
2022-08-28T07:12:21.912Z,100361.09
2022-08-28T07:13:08.641Z,100365.75
2022-08-28T07:14:03.889Z,100365.75
2022-08-28T07:15:03.905Z,100365.31
2022-08-28T07:15:48.024Z,100368.16
2022-08-28T07:16:27.741Z,100359.09
2022-08-28T07:17:13.675Z,100364.31
2022-08-28T07:18:00.043Z,100365.19
2022-08-28T07:18:46.998Z,100369.53
2022-08-28T07:19:39.916Z,100370.69
2022-08-28T07:20:27.782Z,100370.69
2022-08-28T07:21:25.691Z,100369.81
2022-08-28T07:25:23.224Z,100379.97
2022-08-28T07:26:16.984Z,100371.09
2022-08-28T07:26:59.897Z,100368.44
2022-08-28T07:27:41.902Z,100369.94
2022-08-28T07:28:37.304Z,100371.09
2022-08-28T07:29:23.461Z,100376.31
2022-08-28T07:30:08.321Z,100373.50
2022-08-28T07:31:00.701Z,100367.59
2022-08-28T07:31:44.837Z,100377.16
2022-08-28T07:32:29.161Z,100381.66
2022-08-28T07:33:09.395Z,100380.66
2022-08-28T07:33:50.116Z,100377.44
2022-08-28T07:35:26.402Z,100377.97
2022-08-28T07:36:16.070Z,100380.66
2022-08-28T07:37:23.813Z,100379.28
2022-08-28T07:38:11.906Z,100375.78
2022-08-28T07:39:10.114Z,100373.25
2022-08-28T07:41:05.601Z,100377.59
2022-08-28T07:42:08.367Z,100382.78
2022-08-28T07:42:53.700Z,100388.13
2022-08-28T07:43:46.207Z,100372.22
2022-08-28T07:44:35.619Z,100378.44
2022-08-28T07:45:20.724Z,100375.19
2022-08-28T07:46:05.454Z,100383.94
2022-08-28T07:46:49.665Z,100380.69
2022-08-28T07:47:35.447Z,100385.91
2022-08-28T07:48:21.350Z,100381.56
2022-08-28T07:49:01.946Z,100386.91
2022-08-28T07:49:44.473Z,100382.09